Time;durP1;ratioP1;P1;durP2;ratioP2;P2;SDS_P1;SDS_P2;PMS_P1;PMS_P2;Temp;Humidity;BMP_temperature;BMP_pressure;BME280_temperature;BME280_humidity;BME280_pressure;Samples;Min_cycle;Max_cycle;Signal;HPM_P1;HPM_P2
2022/06/11 00:01:00;;;;;;;18.90;11.15;;;;;;;15.59;100.00;99485.30;1696754;82;21349;-54
2022/06/11 00:03:26;;;;;;;10.40;9.35;;;;;;;15.58;100.00;99479.48;1715966;82;21139;-53
2022/06/11 00:05:53;;;;;;;11.57;8.38;;;;;;;15.61;100.00;99479.27;1719905;82;21018;-55
2022/06/11 00:08:20;;;;;;;10.28;8.20;;;;;;;15.62;100.00;99481.50;1713607;82;21059;-51
2022/06/11 00:10:47;;;;;;;14.30;9.40;;;;;;;15.57;100.00;99480.47;1714968;82;21065;-52
2022/06/11 00:13:14;;;;;;;11.15;9.20;;;;;;;15.53;100.00;99477.58;1720649;82;21034;-51
2022/06/11 00:15:42;;;;;;;10.23;9.10;;;;;;;15.46;100.00;99477.17;1721970;82;21217;-51
2022/06/11 00:18:11;;;;;;;9.88;8.43;;;;;;;15.39;100.00;99470.95;1722196;82;21020;-53
2022/06/11 00:20:39;;;;;;;10.43;8.78;;;;;;;15.31;100.00;99475.53;1717683;82;21058;-53
2022/06/11 00:23:05;;;;;;;13.60;8.95;;;;;;;15.31;100.00;99473.34;1717228;82;20911;-52
2022/06/11 00:25:34;;;;;;;12.20;9.93;;;;;;;15.33;100.00;99474.08;1711923;82;21098;-52
2022/06/11 00:28:02;;;;;;;14.73;9.50;;;;;;;15.38;100.00;99478.70;1716112;82;21805;-50
2022/06/11 00:30:29;;;;;;;19.87;11.05;;;;;;;15.40;100.00;99482.14;1713509;82;21362;-51
2022/06/11 00:32:55;;;;;;;10.95;8.28;;;;;;;15.36;100.00;99477.45;1729498;81;20899;-56
2022/06/11 00:35:23;;;;;;;10.00;8.18;;;;;;;15.34;100.00;99485.30;1732770;82;20867;-50
2022/06/11 00:37:49;;;;;;;11.40;8.88;;;;;;;15.33;100.00;99482.21;1714679;82;20966;-55
2022/06/11 00:40:19;;;;;;;8.48;7.60;;;;;;;15.36;100.00;99476.09;1729745;82;21707;-53
2022/06/11 00:42:45;;;;;;;32.08;10.80;;;;;;;15.37;100.00;99483.25;1725187;82;20970;-52
2022/06/11 00:46:01;;;;;;;19.10;9.83;;;;;;;15.39;100.00;99479.95;1785431;78;23164;-51
2022/06/11 00:48:35;;;;;;;18.55;10.30;;;;;;;15.34;100.00;99489.38;1769796;79;21009;-52
2022/06/11 00:51:20;;;;;;;9.98;8.90;;;;;;;15.27;100.00;99486.73;1772997;79;22613;-52
2022/06/11 00:53:52;;;;;;;;;;;;;;;15.27;100.00;99486.73;1750607;80;21038;-51
2022/06/11 00:56:24;;;;;;;13.32;9.78;;;;;;;15.23;100.00;99484.71;1744170;80;20860;-54
2022/06/11 00:58:51;;;;;;;15.50;8.73;;;;;;;15.15;100.00;99496.10;1749814;80;20998;-51
2022/06/11 01:01:20;;;;;;;22.60;10.05;;;;;;;15.11;100.00;99504.09;1753391;80;21421;-50
2022/06/11 01:03:47;;;;;;;19.32;10.28;;;;;;;15.06;100.00;99497.23;1749528;80;21140;-51
2022/06/11 01:06:36;;;;;;;12.98;7.25;;;;;;;15.00;100.00;99497.20;1749412;80;21699;-52
2022/06/11 01:09:36;;;;;;;17.90;8.23;;;;;;;14.94;100.00;99504.41;1753964;80;21550;-50
2022/06/11 01:12:10;;;;;;;16.87;8.48;;;;;;;14.85;100.00;99505.53;1748343;80;21355;-54
2022/06/11 01:14:48;;;;;;;14.28;8.55;;;;;;;14.78;100.00;99511.88;1748303;80;21378;-51
2022/06/11 01:17:35;;;;;;;7.92;7.03;;;;;;;14.81;100.00;99514.83;1754181;80;21065;-55
2022/06/11 01:20:39;;;;;;;15.72;9.38;;;;;;;14.83;100.00;99508.34;1722558;80;21084;-54
2022/06/11 01:23:18;;;;;;;9.30;7.80;;;;;;;14.84;100.00;99510.08;1750689;80;21045;-54
2022/06/11 01:26:28;;;;;;;9.78;7.53;;;;;;;14.84;100.00;99510.57;1711008;80;21028;-54
2022/06/11 01:29:34;;;;;;;8.18;7.33;;;;;;;14.83;100.00;99516.95;1751118;80;21061;-54
2022/06/11 01:32:37;;;;;;;10.98;6.85;;;;;;;14.76;100.00;99518.75;1749076;80;21156;-55
2022/06/11 01:35:12;;;;;;;8.70;7.58;;;;;;;14.65;100.00;99519.96;1749337;80;21050;-54
2022/06/11 01:38:03;;;;;;;11.00;7.17;;;;;;;14.57;100.00;99518.75;1740671;80;21530;-54
2022/06/11 01:40:41;;;;;;;7.17;6.08;;;;;;;14.53;100.00;99522.17;1752478;80;20918;-54
2022/06/11 01:43:36;;;;;;;10.28;6.58;;;;;;;14.51;100.00;99523.23;1750195;80;21041;-54
2022/06/11 01:46:07;;;;;;;6.95;6.22;;;;;;;14.51;100.00;99525.95;1698578;81;22623;-54
2022/06/11 01:48:34;;;;;;;6.78;5.87;;;;;;;14.52;100.00;99527.20;1717197;81;21121;-54
2022/06/11 01:51:15;;;;;;;8.40;6.45;;;;;;;14.50;100.00;99521.50;1719197;81;21483;-54
2022/06/11 01:53:56;;;;;;;8.88;6.60;;;;;;;14.49;100.00;99524.69;1710913;81;21057;-54
2022/06/11 01:56:55;;;;;;;8.90;6.40;;;;;;;14.55;100.00;99527.45;1716106;81;21445;-54
2022/06/11 01:59:30;;;;;;;7.92;6.90;;;;;;;14.55;100.00;99522.05;1716474;81;21548;-54
2022/06/11 02:02:10;;;;;;;8.45;7.12;;;;;;;14.53;100.00;99519.95;1720868;81;21078;-54
2022/06/11 02:05:01;;;;;;;8.90;6.08;;;;;;;14.51;100.00;99524.59;1702376;82;21050;-54
2022/06/11 02:07:46;;;;;;;7.33;6.50;;;;;;;14.43;100.00;99529.66;1715339;82;22239;-54
2022/06/11 02:10:26;;;;;;;;;;;;;;;14.42;100.00;99531.50;1717223;81;21065;-54
2022/06/11 02:13:03;;;;;;;6.67;5.90;;;;;;;14.45;100.00;99534.50;1716744;81;22263;-54
2022/06/11 02:15:43;;;;;;;8.20;5.85;;;;;;;14.46;100.00;99532.17;1696638;83;21351;-54
2022/06/11 02:18:17;;;;;;;10.32;6.35;;;;;;;14.45;100.00;99532.66;1716133;81;21053;-54
2022/06/11 02:21:04;;;;;;;5.70;4.72;;;;;;;14.47;100.00;99536.59;1716385;81;21054;-54
2022/06/11 02:23:41;;;;;;;7.97;5.72;;;;;;;14.47;100.00;99528.47;1719030;81;21559;-54
2022/06/11 02:26:13;;;;;;;7.62;6.25;;;;;;;14.45;100.00;99539.91;1710647;82;21523;-54
2022/06/11 02:28:42;;;;;;;10.05;6.55;;;;;;;14.48;100.00;99535.63;1716531;81;20997;-54
2022/06/11 02:31:11;;;;;;;7.20;6.05;;;;;;;14.52;100.00;99537.17;1709187;81;21733;-54
2022/06/11 02:33:38;;;;;;;9.65;6.65;;;;;;;14.51;100.00;99539.01;1718828;81;20946;-54
2022/06/11 02:36:12;;;;;;;7.00;6.37;;;;;;;14.50;100.00;99543.16;1700541;81;21443;-54
2022/06/11 02:38:39;;;;;;;;;;;;;;;14.50;100.00;99540.45;1720756;81;21542;-54
2022/06/11 02:41:13;;;;;;;6.25;5.65;;;;;;;14.49;100.00;99540.94;1716575;81;20496;-54
2022/06/11 02:43:40;;;;;;;8.45;5.70;;;;;;;14.45;100.00;99541.27;1718832;81;21014;-54
2022/06/11 02:48:52;;;;;;;;;;;;;;;14.42;100.00;99551.81;1735661;80;21066;-54
2022/06/11 02:51:20;;;;;;;6.60;4.53;;;;;;;14.46;100.00;99551.97;1738305;81;21149;-54
2022/06/11 02:53:46;;;;;;;7.58;5.60;;;;;;;14.51;100.00;99551.67;1739101;82;21457;-54
2022/06/11 02:56:14;;;;;;;7.08;5.58;;;;;;;14.56;100.00;99550.38;1738448;80;21109;-55
2022/06/11 02:58:41;;;;;;;5.12;4.60;;;;;;;14.62;100.00;99550.48;1737918;80;21097;-54
2022/06/11 03:01:08;;;;;;;9.33;5.58;;;;;;;14.68;100.00;99547.34;1738789;80;21535;-54
2022/06/11 03:03:35;;;;;;;9.60;6.90;;;;;;;14.76;100.00;99550.39;1739273;81;22374;-54
2022/06/11 03:06:01;;;;;;;8.18;6.60;;;;;;;14.85;100.00;99548.89;1737061;80;22298;-54
2022/06/11 03:08:29;;;;;;;12.53;6.35;;;;;;;14.93;100.00;99551.94;1736303;80;21393;-54
2022/06/11 03:10:57;;;;;;;11.10;6.45;;;;;;;14.99;100.00;99549.66;1737833;82;21494;-54
2022/06/11 03:13:24;;;;;;;8.48;7.03;;;;;;;15.08;100.00;99549.02;1737278;80;21053;-54
2022/06/11 03:15:51;;;;;;;5.55;4.70;;;;;;;15.08;100.00;99549.02;1734455;80;21139;-54
2022/06/11 03:18:17;;;;;;;4.92;4.42;;;;;;;15.15;100.00;99553.52;1737478;81;21394;-54
2022/06/11 03:20:45;;;;;;;8.08;4.87;;;;;;;15.22;100.00;99549.44;1739249;81;21547;-55
2022/06/11 03:23:12;;;;;;;7.55;5.40;;;;;;;15.38;100.00;99544.66;1737555;80;21634;-54
2022/06/11 03:25:39;;;;;;;5.78;5.17;;;;;;;15.38;100.00;99544.66;1735336;80;21082;-54
2022/06/11 03:28:14;;;;;;;6.30;5.58;;;;;;;15.46;100.00;99543.62;1732789;81;21622;-54
2022/06/11 03:30:43;;;;;;;7.33;5.67;;;;;;;15.70;100.00;99539.66;1737730;81;20967;-54
2022/06/11 03:33:09;;;;;;;7.40;6.10;;;;;;;15.70;100.00;99539.66;1737653;80;20910;-54
2022/06/11 03:35:36;;;;;;;7.17;6.42;;;;;;;15.83;100.00;99547.27;1732577;80;20955;-54
2022/06/11 03:38:03;;;;;;;6.33;5.65;;;;;;;15.95;100.00;99548.72;1737275;81;20950;-54
2022/06/11 03:40:29;;;;;;;6.10;5.62;;;;;;;16.07;100.00;99550.54;1737481;80;21751;-54
2022/06/11 03:42:56;;;;;;;7.90;4.85;;;;;;;16.16;100.00;99550.70;1736152;81;20910;-54
2022/06/11 03:45:22;;;;;;;5.92;5.42;;;;;;;16.27;100.00;99552.63;1744467;80;20922;-54
2022/06/11 03:47:48;;;;;;;5.22;4.83;;;;;;;16.37;100.00;99556.88;1746994;81;20950;-55
2022/06/11 03:50:20;;;;;;;7.25;4.62;;;;;;;16.48;100.00;99555.59;1746720;80;20995;-54
2022/06/11 03:52:46;;;;;;;9.15;5.62;;;;;;;16.59;100.00;99549.70;1744031;80;22291;-54
2022/06/11 03:55:12;;;;;;;5.97;5.25;;;;;;;16.74;100.00;99550.92;1748399;80;21389;-55
2022/06/11 03:57:39;;;;;;;5.72;4.75;;;;;;;16.88;100.00;99543.92;1746757;80;20898;-56
2022/06/11 04:00:09;;;;;;;6.37;5.58;;;;;;;17.05;100.00;99553.00;1747740;80;20918;-55
2022/06/11 04:02:35;;;;;;;8.90;6.30;;;;;;;17.22;100.00;99545.74;1744129;80;20946;-55
2022/06/11 04:05:05;;;;;;;13.53;6.30;;;;;;;17.40;100.00;99547.02;1744948;82;22364;-56
2022/06/11 04:07:32;;;;;;;10.28;6.70;;;;;;;17.56;100.00;99545.29;1743126;80;20899;-55
2022/06/11 04:09:58;;;;;;;13.15;7.05;;;;;;;17.73;100.00;99546.19;1747810;80;20997;-55
2022/06/11 04:12:25;;;;;;;8.83;7.28;;;;;;;17.89;100.00;99547.66;1746643;80;20954;-55
2022/06/11 04:14:53;;;;;;;7.83;6.50;;;;;;;18.03;100.00;99548.78;1744238;80;20919;-55
2022/06/11 04:17:24;;;;;;;9.53;6.20;;;;;;;18.17;100.00;99551.72;1749332;80;21108;-55
2022/06/11 04:19:51;;;;;;;8.48;6.15;;;;;;;18.28;100.00;99548.48;1746400;80;20880;-56
2022/06/11 04:22:18;;;;;;;9.48;7.25;;;;;;;18.41;100.00;99553.77;1747393;80;21410;-56
2022/06/11 04:24:45;;;;;;;7.42;6.62;;;;;;;18.51;100.00;99551.52;1743294;80;21050;-56
2022/06/11 04:27:13;;;;;;;7.33;6.12;;;;;;;18.65;100.00;99550.86;1746988;80;21618;-56
2022/06/11 04:29:44;;;;;;;8.10;6.00;;;;;;;18.75;100.00;99552.69;1743612;80;21137;-57
2022/06/11 04:32:12;;;;;;;7.28;6.37;;;;;;;18.88;100.00;99557.98;1747886;81;21549;-57
2022/06/11 04:34:39;;;;;;;6.80;6.05;;;;;;;19.02;100.00;99559.02;1746559;80;21029;-55
2022/06/11 04:37:08;;;;;;;9.20;6.40;;;;;;;19.13;100.00;99556.23;1746387;80;21042;-58
2022/06/11 04:39:34;;;;;;;8.13;5.67;;;;;;;19.24;100.00;99547.09;1743267;80;21327;-60
2022/06/11 04:42:01;;;;;;;15.43;5.85;;;;;;;19.38;100.00;99556.82;1747892;80;21081;-58
2022/06/11 04:44:27;;;;;;;8.40;5.55;;;;;;;19.51;100.00;99550.67;1746012;80;21108;-58
2022/06/11 04:46:55;;;;;;;5.87;4.95;;;;;;;19.63;100.00;99549.09;1741429;80;21065;-56
2022/06/11 04:49:21;;;;;;;5.03;4.53;;;;;;;19.76;100.00;99542.53;1735556;80;21160;-57
2022/06/11 04:51:48;;;;;;;7.70;4.28;;;;;;;19.89;100.00;99552.73;1739020;80;21015;-59
2022/06/11 04:54:14;;;;;;;5.60;4.70;;;;;;;20.01;100.00;99555.21;1732305;81;21241;-56
2022/06/11 04:56:41;;;;;;;8.70;5.85;;;;;;;20.13;100.00;99549.65;1733914;80;21652;-56
2022/06/11 04:59:07;;;;;;;9.98;5.55;;;;;;;20.26;100.00;99551.61;1736958;81;21101;-57
2022/06/11 05:01:35;;;;;;;4.65;4.17;;;;;;;20.39;100.00;99550.90;1736421;80;21117;-55
2022/06/11 05:04:01;;;;;;;8.75;5.00;;;;;;;20.54;100.00;99556.81;1736990;80;21096;-56
2022/06/11 05:06:32;;;;;;;8.78;5.30;;;;;;;20.66;100.00;99552.45;1734111;80;23184;-55
2022/06/11 05:08:59;;;;;;;8.63;4.65;;;;;;;20.79;100.00;99548.06;1734609;80;21043;-57
2022/06/11 05:11:26;;;;;;;5.17;4.53;;;;;;;20.94;100.00;99553.45;1734390;80;21488;-57
2022/06/11 05:13:52;;;;;;;13.30;5.92;;;;;;;21.07;100.00;99549.06;1737384;81;21497;-56
2022/06/11 05:16:20;;;;;;;7.92;5.30;;;;;;;21.19;100.00;99553.89;1735656;80;21136;-57
2022/06/11 05:18:48;;;;;;;5.60;4.42;;;;;;;21.32;100.00;99554.47;1741002;80;21038;-57
2022/06/11 05:21:14;;;;;;;5.85;5.17;;;;;;;21.45;100.00;99559.11;1740333;81;21105;-56
2022/06/11 05:23:41;;;;;;;5.47;4.97;;;;;;;21.58;100.00;99553.33;1739005;80;21583;-56
2022/06/11 05:26:13;;;;;;;7.92;4.97;;;;;;;21.69;100.00;99553.16;1733146;80;21101;-57
2022/06/11 05:28:39;;;;;;;5.83;5.33;;;;;;;21.80;100.00;99559.80;1735239;80;21269;-59
2022/06/11 05:31:07;;;;;;;5.03;3.12;;;;;;;21.91;100.00;99562.36;1733297;81;21639;-56
2022/06/11 05:33:33;;;;;;;5.72;4.90;;;;;;;22.03;100.00;99563.08;1732777;80;21349;-60
2022/06/11 05:36:01;;;;;;;7.62;5.33;;;;;;;22.13;100.00;99557.89;1725750;80;21034;-60
2022/06/11 05:38:28;;;;;;;7.28;4.95;;;;;;;22.24;100.00;99563.68;1734571;80;21591;-59
2022/06/11 05:40:55;;;;;;;5.70;5.08;;;;;;;22.34;100.00;99560.89;1739577;80;21116;-59
2022/06/11 05:43:23;;;;;;;4.50;4.08;;;;;;;22.44;100.00;99565.31;1736738;80;21967;-60
2022/06/11 05:46:09;;;;;;;6.47;4.42;;;;;;;22.55;100.00;99572.44;1739303;80;21104;-56
2022/06/11 05:48:47;;;;;;;6.28;3.75;;;;;;;22.64;100.00;99566.88;1724642;81;20995;-59
2022/06/11 05:51:16;;;;;;;6.33;4.25;;;;;;;22.79;100.00;99569.14;1711046;82;21069;-59
2022/06/11 05:53:42;;;;;;;8.05;3.60;;;;;;;22.92;100.00;99560.00;1707829;82;20988;-60
2022/06/11 05:56:09;;;;;;;6.15;3.20;;;;;;;23.03;100.00;99561.14;1710761;82;21302;-60
2022/06/11 05:58:49;;;;;;;30.30;5.37;;;;;;;23.12;100.00;99557.45;1687399;82;21536;-57
2022/06/11 06:01:18;;;;;;;6.28;2.92;;;;;;;23.24;100.00;99558.05;1708255;82;21071;-56
2022/06/11 06:03:44;;;;;;;10.50;3.12;;;;;;;23.36;100.00;99556.27;1713902;81;21119;-57
2022/06/11 06:06:12;;;;;;;15.00;3.50;;;;;;;23.47;100.00;99554.30;1711423;82;21515;-57
2022/06/11 06:08:40;;;;;;;9.13;3.35;;;;;;;23.59;100.00;99555.77;1713207;82;21151;-57
2022/06/11 06:11:08;;;;;;;7.45;3.27;;;;;;;23.70;100.00;99555.51;1706451;82;21042;-58
2022/06/11 06:13:46;;;;;;;3.70;3.40;;;;;;;23.82;100.00;99554.19;1710998;82;21423;-57
2022/06/11 06:16:22;;;;;;;4.58;3.72;;;;;;;23.93;100.00;99549.80;1709888;82;21080;-58
2022/06/11 06:18:50;;;;;;;8.08;3.80;;;;;;;24.04;100.00;99550.89;1707226;82;21059;-59
2022/06/11 06:21:19;;;;;;;5.37;3.20;;;;;;;24.18;100.00;99552.66;1713064;82;21242;-58
2022/06/11 06:23:46;;;;;;;6.20;3.00;;;;;;;24.28;100.00;99554.28;1708357;81;21126;-57
2022/06/11 06:26:12;;;;;;;11.63;5.80;;;;;;;24.38;100.00;99557.77;1714861;82;21034;-58
2022/06/11 06:28:39;;;;;;;10.38;5.20;;;;;;;24.47;100.00;99551.78;1707312;82;21028;-59
2022/06/11 06:31:06;;;;;;;10.35;5.72;;;;;;;24.57;100.00;99548.38;1703665;81;21433;-60
2022/06/11 06:33:33;;;;;;;8.33;6.12;;;;;;;24.67;100.00;99553.19;1709780;82;21188;-58
2022/06/11 06:36:01;;;;;;;7.33;6.22;;;;;;;24.75;100.00;99548.25;1708956;82;21118;-58
2022/06/11 06:38:27;;;;;;;13.45;7.78;;;;;;;24.86;100.00;99548.77;1710081;82;20932;-57
2022/06/11 06:40:54;;;;;;;11.03;7.47;;;;;;;24.96;100.00;99549.16;1716281;81;20960;-57
2022/06/11 06:43:20;;;;;;;11.65;8.10;;;;;;;25.05;100.00;99543.48;1719329;82;20936;-58
2022/06/11 06:45:47;;;;;;;13.30;8.43;;;;;;;25.15;100.00;99547.45;1711796;82;21865;-57
2022/06/11 06:48:14;;;;;;;9.08;8.03;;;;;;;25.24;100.00;99546.42;1724207;80;20969;-57
2022/06/11 06:50:41;;;;;;;12.33;7.70;;;;;;;25.33;100.00;99546.77;1740338;80;21826;-57
2022/06/11 06:53:07;;;;;;;11.43;7.87;;;;;;;25.43;100.00;99541.94;1738798;80;20931;-57
2022/06/11 06:55:34;;;;;;;10.03;9.00;;;;;;;25.52;100.00;99545.00;1736607;81;20922;-56
2022/06/11 06:58:01;;;;;;;9.50;8.10;;;;;;;25.60;100.00;99544.19;1733968;80;21186;-58
2022/06/11 07:00:27;;;;;;;9.70;8.78;;;;;;;25.69;100.00;99541.73;1739363;81;20979;-59
2022/06/11 07:02:54;;;;;;;9.58;7.70;;;;;;;25.80;100.00;99548.78;1737625;80;20970;-60
2022/06/11 07:05:21;;;;;;;8.58;6.92;;;;;;;25.89;100.00;99557.38;1736449;80;21001;-59
2022/06/11 07:07:49;;;;;;;9.00;8.00;;;;;;;25.96;100.00;99552.35;1737315;80;21054;-59
2022/06/11 07:10:16;;;;;;;8.65;7.17;;;;;;;26.05;100.00;99554.56;1738213;80;21233;-58
2022/06/11 07:12:43;;;;;;;16.42;7.60;;;;;;;26.14;100.00;99554.88;1734835;81;21401;-59
2022/06/11 07:15:10;;;;;;;11.38;8.45;;;;;;;26.19;100.00;99553.84;1734220;80;21688;-58
2022/06/11 07:17:42;;;;;;;7.35;6.80;;;;;;;26.27;100.00;99555.22;1738048;80;21213;-57
2022/06/11 07:20:16;;;;;;;13.22;6.30;;;;;;;26.34;100.00;99553.98;1732315;81;21144;-59
2022/06/11 07:22:58;;;;;;;6.08;5.58;;;;;;;26.43;100.00;99548.77;1738575;81;21558;-60
2022/06/11 07:25:24;;;;;;;6.50;5.90;;;;;;;26.51;100.00;99554.23;1736753;80;21504;-57
2022/06/11 07:27:55;;;;;;;8.98;7.00;;;;;;;26.58;100.00;99555.23;1738549;82;21143;-60
2022/06/11 07:30:23;;;;;;;6.62;6.03;;;;;;;26.64;100.00;99553.12;1739171;82;21077;-58
2022/06/11 07:33:05;;;;;;;7.47;4.10;;;;;;;26.69;100.00;99558.97;1738447;81;21121;-57
2022/06/11 07:35:32;;;;;;;5.80;5.22;;;;;;;26.77;100.00;99557.20;1735891;81;21163;-58
2022/06/11 07:37:59;;;;;;;3.90;1.62;;;;;;;26.83;100.00;99555.94;1738994;82;21542;-57
2022/06/11 07:40:25;;;;;;;3.27;2.17;;;;;;;26.89;100.00;99550.20;1735527;80;21480;-56
2022/06/11 07:42:53;;;;;;;4.22;2.77;;;;;;;26.95;100.00;99551.77;1740571;80;21073;-58
2022/06/11 07:45:20;;;;;;;3.72;1.72;;;;;;;27.02;100.00;99555.50;1736412;81;21575;-60
2022/06/11 07:47:53;;;;;;;5.12;1.37;;;;;;;27.07;100.00;99550.27;1738073;82;21529;-59
2022/06/11 07:50:23;;;;;;;4.53;1.90;;;;;;;27.15;100.00;99556.77;1742054;80;21022;-59
2022/06/11 07:52:50;;;;;;;2.47;2.27;;;;;;;27.18;100.00;99549.50;1745795;81;21065;-57
2022/06/11 07:55:17;;;;;;;5.92;3.08;;;;;;;27.22;100.00;99546.17;1747436;80;21108;-60
2022/06/11 07:57:44;;;;;;;2.85;2.30;;;;;;;27.28;100.00;99547.36;1747274;80;21037;-58
2022/06/11 08:00:14;;;;;;;3.58;3.12;;;;;;;27.32;100.00;99548.16;1743332;80;21499;-57
2022/06/11 08:02:41;;;;;;;9.45;3.55;;;;;;;27.40;100.00;99545.33;1744732;80;21057;-61
2022/06/11 08:05:08;;;;;;;7.08;2.90;;;;;;;27.45;100.00;99538.73;1745619;81;21034;-59
2022/06/11 08:07:34;;;;;;;3.62;2.40;;;;;;;27.53;100.00;99544.70;1743914;80;21057;-58
2022/06/11 08:10:02;;;;;;;5.05;2.95;;;;;;;27.58;100.00;99537.25;1746236;81;21472;-58
2022/06/11 08:12:30;;;;;;;4.67;1.95;;;;;;;27.63;100.00;99541.19;1746985;81;21022;-59
2022/06/11 08:14:56;;;;;;;1.47;0.90;;;;;;;27.71;100.00;99545.25;1744433;80;21089;-59
2022/06/11 08:17:27;;;;;;;3.33;1.80;;;;;;;27.79;100.00;99553.46;1748225;80;21013;-60
2022/06/11 08:19:55;;;;;;;3.17;1.30;;;;;;;27.88;100.00;99550.61;1745860;81;21093;-58
2022/06/11 08:22:22;;;;;;;1.32;0.72;;;;;;;27.93;100.00;99551.74;1745105;81;21501;-58
2022/06/11 08:24:48;;;;;;;4.10;1.40;;;;;;;28.00;100.00;99549.93;1746781;80;21075;-58
2022/06/11 08:27:15;;;;;;;3.35;1.82;;;;;;;28.04;100.00;99545.75;1747162;80;21057;-59
2022/06/11 08:29:42;;;;;;;5.35;2.08;;;;;;;28.10;100.00;99542.73;1746532;81;21057;-59
2022/06/11 08:32:10;;;;;;;2.60;1.75;;;;;;;28.15;100.00;99545.28;1748474;80;20998;-59
2022/06/11 08:34:40;;;;;;;2.65;1.92;;;;;;;28.18;100.00;99544.05;1743027;80;21021;-59
2022/06/11 08:37:07;;;;;;;2.60;1.50;;;;;;;28.20;100.00;99546.10;1746511;80;21116;-60
2022/06/11 08:39:35;;;;;;;4.10;1.32;;;;;;;28.22;100.00;99542.10;1745385;81;21046;-59
2022/06/11 08:42:03;;;;;;;4.40;1.55;;;;;;;28.26;100.00;99545.33;1747706;81;21312;-59
2022/06/11 08:44:32;;;;;;;3.02;1.40;;;;;;;28.31;100.00;99540.61;1746241;80;21100;-58
2022/06/11 08:47:07;;;;;;;2.12;1.40;;;;;;;28.35;100.00;99533.63;1746915;81;21377;-59
2022/06/11 08:49:39;;;;;;;2.92;1.47;;;;;;;28.40;100.00;99540.32;1745746;80;21144;-58
2022/06/11 08:52:11;;;;;;;2.05;1.30;;;;;;;28.43;100.00;99535.76;1745947;81;21074;-59
2022/06/11 08:54:41;;;;;;;1.60;1.32;;;;;;;28.47;100.00;99535.72;1744985;80;21047;-59
2022/06/11 08:57:22;;;;;;;4.03;1.30;;;;;;;28.50;100.00;99528.39;1746255;80;21555;-60
2022/06/11 09:00:15;;;;;;;2.33;1.47;;;;;;;28.55;100.00;99530.06;1747746;81;21049;-61
2022/06/11 09:03:07;;;;;;;2.17;1.40;;;;;;;28.62;100.00;99531.52;1744365;80;21138;-58
2022/06/11 09:06:13;;;;;;;3.65;1.55;;;;;;;28.66;100.00;99533.39;1740487;80;22146;-60
2022/06/11 09:09:05;;;;;;;3.00;1.70;;;;;;;28.71;100.00;99532.27;1738438;81;21728;-60
2022/06/11 09:12:13;;;;;;;2.33;1.80;;;;;;;28.76;100.00;99521.44;1738155;80;21642;-61
2022/06/11 09:15:00;;;;;;;1.70;1.40;;;;;;;28.81;100.00;99528.69;1737607;80;21131;-60
2022/06/11 09:18:04;;;;;;;3.33;1.92;;;;;;;28.86;100.00;99522.02;1743834;81;22276;-58
2022/06/11 09:20:54;;;;;;;2.60;1.47;;;;;;;28.90;100.00;99521.45;1742894;80;22498;-60
2022/06/11 09:23:47;;;;;;;1.42;1.32;;;;;;;28.93;100.00;99520.17;1707498;80;21085;-60
2022/06/11 09:26:39;;;;;;;2.75;1.42;;;;;;;28.91;100.00;99487.16;1741804;81;21061;-59
2022/06/11 09:29:40;;;;;;;3.80;1.17;;;;;;;28.87;100.00;99523.22;1737574;80;21109;-58
2022/06/11 09:32:23;;;;;;;4.33;1.40;;;;;;;28.91;100.00;99520.40;1741261;80;22388;-60
2022/06/11 09:34:57;;;;;;;3.45;1.22;;;;;;;28.94;100.00;99512.19;1745644;80;20934;-62
2022/06/11 09:37:58;;;;;;;5.12;1.60;;;;;;;28.92;100.00;99518.48;1748719;81;20866;-59
2022/06/11 09:40:44;;;;;;;3.47;1.42;;;;;;;28.92;100.00;99519.87;1713478;80;20969;-59
2022/06/11 09:43:37;;;;;;;3.98;1.30;;;;;;;28.91;100.00;99509.84;1747297;81;21508;-56
2022/06/11 09:46:39;;;;;;;2.55;1.30;;;;;;;28.93;100.00;99514.10;1712179;82;21875;-61
2022/06/11 09:49:26;;;;;;;2.55;1.32;;;;;;;28.98;100.00;99512.14;1737603;80;21543;-60
2022/06/11 09:52:21;;;;;;;1.40;1.10;;;;;;;29.04;100.00;99508.57;1674722;82;21296;-59
2022/06/11 09:55:05;;;;;;;3.27;1.30;;;;;;;29.10;100.00;99516.08;1740077;81;21247;-58
2022/06/11 09:57:41;;;;;;;;;;;;;;;29.15;100.00;99507.19;1741895;80;20974;-60
2022/06/11 10:00:32;;;;;;;2.45;1.00;;;;;;;29.18;100.00;99507.63;1740152;81;21096;-61
2022/06/11 10:03:28;;;;;;;5.80;1.72;;;;;;;29.22;100.00;99505.33;1746980;80;20867;-57
2022/06/11 10:06:00;;;;;;;;;;;;;;;29.24;100.00;99508.24;1748552;81;20926;-57
2022/06/11 10:08:45;;;;;;;1.98;1.00;;;;;;;29.29;100.00;99500.70;1743021;80;20692;-61
2022/06/11 10:11:30;;;;;;;;;;;;;;;29.32;100.00;99494.77;1743113;80;21392;-59
2022/06/11 10:14:30;;;;;;;2.65;1.30;;;;;;;29.31;100.00;99502.75;1742706;81;21242;-61
2022/06/11 10:17:37;;;;;;;2.65;1.20;;;;;;;29.27;100.00;99493.96;1717468;82;21085;-59
2022/06/11 10:20:34;;;;;;;1.62;1.47;;;;;;;29.30;100.00;99501.89;1733994;80;22130;-59
2022/06/11 10:23:37;;;;;;;2.45;1.45;;;;;;;29.30;100.00;99490.80;1728612;81;21375;-61
2022/06/11 10:26:18;;;;;;;2.08;1.22;;;;;;;29.31;100.00;99494.44;1738263;80;21120;-59
2022/06/11 10:29:13;;;;;;;2.90;1.50;;;;;;;29.34;100.00;99493.52;1735828;80;21554;-62
2022/06/11 10:31:48;;;;;;;5.28;2.02;;;;;;;29.37;100.00;99492.80;1738469;81;21073;-60
2022/06/11 10:34:25;;;;;;;16.37;1.50;;;;;;;29.38;100.00;99486.20;1732404;80;21085;-59
2022/06/11 10:37:25;;;;;;;5.40;1.30;;;;;;;29.40;100.00;99485.47;1734383;80;21523;-63
2022/06/11 10:40:13;;;;;;;1.45;1.10;;;;;;;29.41;100.00;99488.58;1730063;80;21068;-60
2022/06/11 10:42:44;;;;;;;2.70;1.52;;;;;;;29.42;100.00;99484.22;1736204;80;21234;-58
2022/06/11 10:45:14;;;;;;;3.50;1.32;;;;;;;29.46;100.00;99486.05;1737781;80;21100;-59
2022/06/11 10:47:50;;;;;;;3.15;1.55;;;;;;;29.50;100.00;99477.66;1734408;81;21437;-60
2022/06/11 10:50:33;;;;;;;1.98;1.15;;;;;;;29.55;100.00;99477.38;1749604;80;20937;-61
2022/06/11 10:53:34;;;;;;;1.50;1.40;;;;;;;29.60;100.00;99479.56;1752959;80;21165;-62
2022/06/11 10:56:05;;;;;;;1.50;1.20;;;;;;;29.60;100.00;99479.00;1747701;80;21255;-63
2022/06/11 10:58:45;;;;;;;1.10;1.00;;;;;;;29.60;100.00;99487.31;1750795;80;20998;-60
2022/06/11 11:01:37;;;;;;;1.67;1.30;;;;;;;29.61;100.00;99479.33;1750546;81;21056;-61
2022/06/11 11:04:25;;;;;;;3.12;1.80;;;;;;;29.60;100.00;99474.84;1747707;80;21717;-62
2022/06/11 11:07:16;;;;;;;1.70;1.30;;;;;;;29.57;100.00;99466.95;1751753;80;21301;-59
2022/06/11 11:09:43;;;;;;;3.27;1.10;;;;;;;29.56;100.00;99469.39;1751793;80;21944;-61
2022/06/11 11:12:25;;;;;;;2.80;1.22;;;;;;;29.57;100.00;99467.47;1751458;80;21069;-60
2022/06/11 11:15:11;;;;;;;2.40;1.50;;;;;;;29.60;100.00;99470.68;1754217;80;20933;-59
2022/06/11 11:17:49;;;;;;;1.92;1.10;;;;;;;29.66;100.00;99466.26;1747651;80;21121;-58
2022/06/11 11:20:30;;;;;;;1.30;1.20;;;;;;;29.69;100.00;99466.69;1752477;80;21508;-59
2022/06/11 11:23:23;;;;;;;2.75;1.30;;;;;;;29.71;100.00;99463.72;1722837;80;21730;-60
2022/06/11 11:25:54;;;;;;;1.47;1.17;;;;;;;29.76;100.00;99458.96;1752293;81;21128;-61
2022/06/11 11:28:28;;;;;;;1.50;1.10;;;;;;;29.75;100.00;99458.10;1746828;80;21473;-59
2022/06/11 11:31:06;;;;;;;1.50;1.07;;;;;;;29.71;100.00;99456.78;1749773;80;21033;-59
2022/06/11 11:33:37;;;;;;;1.65;1.20;;;;;;;29.67;100.00;99450.80;1753303;80;21028;-59
2022/06/11 11:36:22;;;;;;;13.93;1.52;;;;;;;29.70;100.00;99459.23;1751229;80;21551;-58
2022/06/11 11:39:17;;;;;;;1.42;1.30;;;;;;;29.73;100.00;99457.44;1752382;80;21052;-58
2022/06/11 11:42:05;;;;;;;2.30;1.10;;;;;;;29.75;100.00;99453.94;1750187;80;21053;-58
2022/06/11 11:44:37;;;;;;;1.67;1.05;;;;;;;29.78;100.00;99451.27;1749543;80;21135;-59
2022/06/11 11:47:16;;;;;;;2.20;1.10;;;;;;;29.80;100.00;99447.77;1724139;81;21049;-61
2022/06/11 11:49:44;;;;;;;1.37;1.10;;;;;;;29.81;100.00;99444.80;1738252;80;21174;-60
2022/06/11 11:52:15;;;;;;;2.58;1.02;;;;;;;29.80;100.00;99447.23;1693107;80;21105;-62
2022/06/11 11:54:56;;;;;;;1.15;1.00;;;;;;;29.81;100.00;99447.56;1747376;80;21034;-60
2022/06/11 11:57:23;;;;;;;3.30;1.20;;;;;;;29.80;100.00;99444.46;1746347;80;21136;-60
2022/06/11 12:00:03;;;;;;;2.20;1.35;;;;;;;29.83;100.00;99441.81;1742561;80;21120;-61